createdAt,value
2022-10-19T00:01:15.951Z,2.80
2022-10-19T00:03:43.665Z,3.80
2022-10-19T00:06:12.032Z,3.20
2022-10-19T00:08:39.576Z,3.10
2022-10-19T00:11:06.994Z,2.80
2022-10-19T00:13:34.494Z,3.23
2022-10-19T00:16:01.737Z,3.20
2022-10-19T00:18:30.278Z,2.57
2022-10-19T00:21:03.642Z,3.40
2022-10-19T00:23:30.953Z,3.73
2022-10-19T00:25:58.313Z,3.23
2022-10-19T00:28:25.659Z,2.97
2022-10-19T00:30:52.886Z,2.80
2022-10-19T00:33:20.186Z,2.97
2022-10-19T00:35:48.830Z,2.87
2022-10-19T00:38:16.469Z,3.03
2022-10-19T00:40:43.909Z,2.87
2022-10-19T00:43:13.939Z,3.17
2022-10-19T00:45:41.153Z,2.80
2022-10-19T00:48:09.016Z,3.17
2022-10-19T00:50:36.439Z,2.90
2022-10-19T00:53:12.480Z,3.40
2022-10-19T00:55:47.501Z,3.67
2022-10-19T00:58:14.890Z,3.57
2022-10-19T01:00:42.121Z,3.07
2022-10-19T01:03:10.343Z,3.03
2022-10-19T01:05:37.591Z,3.20
2022-10-19T01:08:06.755Z,2.90
2022-10-19T01:10:39.202Z,3.03
2022-10-19T01:13:11.790Z,2.80
2022-10-19T01:15:42.426Z,3.27
2022-10-19T01:18:12.970Z,2.80
2022-10-19T01:20:49.428Z,3.03
2022-10-19T01:23:31.437Z,3.20
2022-10-19T01:26:07.365Z,3.20
2022-10-19T01:28:45.132Z,3.07
2022-10-19T01:31:18.633Z,2.80
2022-10-19T01:33:48.012Z,3.40
2022-10-19T01:36:19.564Z,3.33
2022-10-19T01:38:50.466Z,2.53
2022-10-19T01:41:20.828Z,2.73
2022-10-19T01:43:51.657Z,2.63
2022-10-19T01:46:21.847Z,2.93
2022-10-19T01:48:52.735Z,2.90
2022-10-19T01:51:21.661Z,3.47
2022-10-19T01:53:51.021Z,3.37
2022-10-19T01:56:18.943Z,2.67
2022-10-19T01:58:46.915Z,3.67
2022-10-19T02:01:17.381Z,2.80
2022-10-19T02:03:51.077Z,2.97
2022-10-19T02:06:18.656Z,2.63
2022-10-19T02:08:47.774Z,2.57
2022-10-19T02:11:15.256Z,2.70
2022-10-19T02:13:43.404Z,2.73
2022-10-19T02:16:13.570Z,2.50
2022-10-19T02:18:43.242Z,2.17
2022-10-19T02:21:11.810Z,2.67
2022-10-19T02:23:39.058Z,2.40
2022-10-19T02:26:06.755Z,2.73
2022-10-19T02:28:34.378Z,2.30
2022-10-19T02:31:01.915Z,2.60
2022-10-19T02:33:29.674Z,2.33
2022-10-19T02:35:57.571Z,2.50
2022-10-19T02:38:26.357Z,2.80
2022-10-19T02:40:57.788Z,3.13
2022-10-19T02:43:26.465Z,3.27
2022-10-19T02:45:56.886Z,2.53
2022-10-19T02:48:25.678Z,3.33
2022-10-19T02:50:52.887Z,2.40
2022-10-19T02:53:20.138Z,2.80
2022-10-19T02:55:49.622Z,2.87
2022-10-19T02:58:16.871Z,2.83
2022-10-19T03:00:44.126Z,3.00
2022-10-19T03:03:11.747Z,3.00
2022-10-19T03:05:39.031Z,3.37
2022-10-19T03:08:06.553Z,2.67
2022-10-19T03:10:33.821Z,2.90
2022-10-19T03:13:02.370Z,3.13
2022-10-19T03:15:29.697Z,3.00
2022-10-19T03:17:56.914Z,3.27
2022-10-19T03:20:24.164Z,4.10
2022-10-19T03:25:23.550Z,3.23
2022-10-19T03:27:52.233Z,3.07
2022-10-19T03:30:20.830Z,3.43
2022-10-19T03:32:48.166Z,2.93
2022-10-19T03:35:15.371Z,3.43
2022-10-19T03:37:42.598Z,3.93
2022-10-19T03:40:10.370Z,3.50
2022-10-19T03:42:37.539Z,3.37
2022-10-19T03:45:05.053Z,3.37
2022-10-19T03:47:33.774Z,3.23
2022-10-19T03:50:01.805Z,3.27
2022-10-19T03:52:28.977Z,3.50
2022-10-19T03:54:56.393Z,3.30
2022-10-19T03:57:23.661Z,3.03
2022-10-19T03:59:50.831Z,2.80
2022-10-19T04:02:18.078Z,3.57
2022-10-19T04:04:48.713Z,3.00
2022-10-19T04:07:15.890Z,2.67
2022-10-19T04:09:43.088Z,3.70
2022-10-19T04:12:10.319Z,3.60
2022-10-19T04:14:52.503Z,3.23
2022-10-19T04:17:23.372Z,3.53
2022-10-19T04:19:52.174Z,4.07
2022-10-19T04:22:19.366Z,3.03
2022-10-19T04:24:46.669Z,3.60
2022-10-19T04:27:13.837Z,3.23
2022-10-19T04:29:41.095Z,3.00
2022-10-19T04:32:08.321Z,3.00
2022-10-19T04:34:39.931Z,3.30
2022-10-19T04:37:08.834Z,3.20
2022-10-19T04:39:35.990Z,3.10
2022-10-19T04:42:05.659Z,2.57
2022-10-19T04:44:32.847Z,2.67
2022-10-19T04:47:00.051Z,2.33
2022-10-19T04:49:27.315Z,3.30
2022-10-19T04:51:54.515Z,3.17
2022-10-19T04:54:23.202Z,2.80
2022-10-19T04:56:50.469Z,2.80
2022-10-19T04:59:17.708Z,2.80
2022-10-19T05:01:47.291Z,2.57
2022-10-19T05:04:14.752Z,2.37
2022-10-19T05:06:41.977Z,2.73
2022-10-19T05:09:09.162Z,2.83
2022-10-19T05:11:37.685Z,2.80
2022-10-19T05:14:04.918Z,1.77
2022-10-19T05:20:00.738Z,3.00
2022-10-19T05:22:28.014Z,2.40
2022-10-19T05:24:58.074Z,2.20
2022-10-19T05:27:26.862Z,2.70
2022-10-19T05:29:54.091Z,2.27
2022-10-19T05:32:21.339Z,2.27
2022-10-19T05:34:48.563Z,3.03
2022-10-19T05:37:16.502Z,2.70
2022-10-19T05:39:43.917Z,1.93
2022-10-19T05:42:11.114Z,2.07
2022-10-19T05:44:39.667Z,2.30
2022-10-19T05:47:06.846Z,2.40
2022-10-19T05:49:35.545Z,2.90
2022-10-19T05:52:02.814Z,2.47
2022-10-19T05:54:30.071Z,2.90
2022-10-19T05:56:57.259Z,2.50
2022-10-19T05:59:24.587Z,2.50
2022-10-19T06:01:53.352Z,2.70
2022-10-19T06:04:20.624Z,2.53
2022-10-19T06:06:47.884Z,3.30
2022-10-19T06:09:15.134Z,2.53
2022-10-19T06:11:42.854Z,2.50
2022-10-19T06:14:12.522Z,3.00
2022-10-19T06:16:40.090Z,2.63
2022-10-19T06:19:09.327Z,3.00
2022-10-19T06:21:37.873Z,2.53
2022-10-19T06:24:06.976Z,2.73
2022-10-19T06:26:35.360Z,2.20
2022-10-19T06:29:02.889Z,2.27
2022-10-19T06:31:30.478Z,2.53
2022-10-19T06:33:57.864Z,2.17
2022-10-19T06:36:27.992Z,2.87
2022-10-19T06:38:55.394Z,2.13
2022-10-19T06:41:23.187Z,2.27
2022-10-19T06:43:51.210Z,2.60
2022-10-19T06:46:19.125Z,2.90
2022-10-19T06:48:49.843Z,2.57
2022-10-19T06:51:17.074Z,2.83
2022-10-19T06:53:45.688Z,2.57
2022-10-19T06:56:13.159Z,2.37
2022-10-19T06:58:40.682Z,2.53
2022-10-19T07:01:08.894Z,2.13
2022-10-19T07:03:36.527Z,1.93
2022-10-19T07:06:04.786Z,2.73
2022-10-19T07:08:32.878Z,2.07
2022-10-19T07:11:02.599Z,2.47
2022-10-19T07:13:30.268Z,2.97
2022-10-19T07:15:58.157Z,2.00
2022-10-19T07:18:25.362Z,2.10
2022-10-19T07:20:56.714Z,2.07
2022-10-19T07:23:24.250Z,2.30
2022-10-19T07:25:51.895Z,2.87
2022-10-19T07:28:20.453Z,2.53
2022-10-19T07:30:47.905Z,2.37
2022-10-19T07:33:15.415Z,2.60
2022-10-19T07:35:42.601Z,2.10
2022-10-19T07:38:09.904Z,2.50
2022-10-19T07:40:37.706Z,2.43
2022-10-19T07:43:04.923Z,2.17
2022-10-19T07:45:34.057Z,2.57
2022-10-19T07:48:01.243Z,2.50
2022-10-19T07:50:28.481Z,2.43
2022-10-19T07:52:55.773Z,2.27
2022-10-19T07:55:22.978Z,2.23
2022-10-19T07:57:50.784Z,2.00
2022-10-19T08:00:18.032Z,2.20
2022-10-19T08:03:00.096Z,2.33
2022-10-19T08:05:33.995Z,1.67
2022-10-19T08:08:01.180Z,1.77
2022-10-19T08:10:28.600Z,1.93
2022-10-19T08:12:55.884Z,2.27
2022-10-19T08:15:23.088Z,1.93
2022-10-19T08:17:51.668Z,2.40
2022-10-19T08:20:19.123Z,2.40
2022-10-19T08:22:46.290Z,2.07
2022-10-19T08:25:13.515Z,2.50
2022-10-19T08:27:40.799Z,2.87
2022-10-19T08:30:08.858Z,2.57
2022-10-19T08:32:36.450Z,1.73
2022-10-19T08:35:09.939Z,2.00
2022-10-19T08:37:45.344Z,2.20
2022-10-19T08:40:14.395Z,2.40
2022-10-19T08:42:45.450Z,2.23
2022-10-19T08:45:30.405Z,2.57
2022-10-19T08:48:00.146Z,2.60
2022-10-19T08:50:32.886Z,2.07
2022-10-19T08:53:02.391Z,2.50
2022-10-19T08:55:34.873Z,2.30
2022-10-19T08:58:07.535Z,2.10
2022-10-19T09:03:22.980Z,2.17
2022-10-19T09:06:09.679Z,1.90
2022-10-19T09:08:38.465Z,2.60
2022-10-19T09:11:07.324Z,2.37
2022-10-19T09:13:41.628Z,2.20
2022-10-19T09:16:15.519Z,2.00
2022-10-19T09:18:43.510Z,2.13
2022-10-19T09:21:15.335Z,2.80
2022-10-19T09:23:44.890Z,2.03
2022-10-19T09:26:15.370Z,2.30
2022-10-19T09:28:46.172Z,2.17
2022-10-19T09:31:15.516Z,1.80
2022-10-19T09:33:44.658Z,2.17
2022-10-19T09:36:22.404Z,1.57
2022-10-19T09:38:55.030Z,1.60
2022-10-19T09:41:23.139Z,1.43
2022-10-19T09:43:52.187Z,2.20
2022-10-19T09:46:25.593Z,1.77
2022-10-19T09:48:59.799Z,1.83
2022-10-19T09:51:39.145Z,1.73
2022-10-19T09:54:06.378Z,1.80
2022-10-19T09:56:36.460Z,2.10
2022-10-19T09:59:03.721Z,1.70
2022-10-19T10:01:41.691Z,1.83
2022-10-19T10:04:10.819Z,1.93
2022-10-19T10:06:39.699Z,1.80
2022-10-19T10:09:06.968Z,1.90
2022-10-19T10:11:36.337Z,1.90
2022-10-19T10:14:09.081Z,1.80
2022-10-19T10:16:37.249Z,1.73
2022-10-19T10:19:08.471Z,1.80
2022-10-19T10:21:46.225Z,1.30
2022-10-19T10:24:19.184Z,1.53
2022-10-19T10:26:47.623Z,1.63
2022-10-19T10:29:19.211Z,1.90
2022-10-19T10:31:54.823Z,2.03
2022-10-19T10:34:45.560Z,2.37
2022-10-19T10:37:16.593Z,1.87
2022-10-19T10:39:45.283Z,1.67
2022-10-19T10:42:15.943Z,1.83
2022-10-19T10:44:45.803Z,2.20
2022-10-19T10:47:14.086Z,1.67
2022-10-19T10:49:43.268Z,1.40
2022-10-19T10:52:11.610Z,2.20
2022-10-19T10:54:39.310Z,1.80
2022-10-19T10:57:11.473Z,2.33
2022-10-19T10:59:44.718Z,1.83
2022-10-19T11:02:18.368Z,1.60
2022-10-19T11:04:51.438Z,2.00
2022-10-19T11:07:21.234Z,1.70
2022-10-19T11:09:51.889Z,1.43
2022-10-19T11:12:24.240Z,1.53
2022-10-19T11:14:54.571Z,1.83
2022-10-19T11:17:22.875Z,1.73
2022-10-19T11:19:50.218Z,1.53
2022-10-19T11:22:23.682Z,1.80
2022-10-19T11:25:01.902Z,1.80
2022-10-19T11:27:35.693Z,1.53
2022-10-19T11:30:07.934Z,1.60
2022-10-19T11:32:39.215Z,1.60
2022-10-19T11:35:11.426Z,1.97
2022-10-19T11:40:31.803Z,1.50
2022-10-19T11:43:03.198Z,1.50
2022-10-19T11:45:37.564Z,1.80
2022-10-19T11:48:13.133Z,1.73
2022-10-19T11:50:53.897Z,1.60
2022-10-19T11:53:25.915Z,1.80
2022-10-19T11:55:58.470Z,2.13
2022-10-19T11:58:34.610Z,1.27
2022-10-19T12:01:05.532Z,1.93
2022-10-19T12:03:41.778Z,2.10
2022-10-19T12:06:11.629Z,1.50
2022-10-19T12:08:44.673Z,1.60
2022-10-19T12:11:19.911Z,2.13
2022-10-19T12:13:49.948Z,1.97
2022-10-19T12:16:18.088Z,1.53
2022-10-19T12:18:47.148Z,2.17
2022-10-19T12:21:18.438Z,1.33
2022-10-19T12:23:46.263Z,1.77
2022-10-19T12:26:16.223Z,1.43
2022-10-19T12:28:47.575Z,1.70
2022-10-19T12:31:16.775Z,1.70
2022-10-19T12:33:48.836Z,2.23
2022-10-19T12:36:20.251Z,1.63
2022-10-19T12:38:59.721Z,1.80
2022-10-19T12:41:30.122Z,1.73
2022-10-19T12:44:05.594Z,2.00
2022-10-19T12:46:36.374Z,2.00
2022-10-19T12:49:21.955Z,1.67
2022-10-19T12:51:49.251Z,2.17
2022-10-19T12:54:16.480Z,1.63
2022-10-19T12:56:48.163Z,1.73
2022-10-19T12:59:22.421Z,1.43
2022-10-19T13:01:52.002Z,1.97
2022-10-19T13:04:22.325Z,1.57
2022-10-19T13:06:50.878Z,1.50
2022-10-19T13:09:24.092Z,1.10
2022-10-19T13:12:09.859Z,1.53
2022-10-19T13:14:42.982Z,1.70
2022-10-19T13:17:33.976Z,1.90
2022-10-19T13:20:16.486Z,1.63
2022-10-19T13:22:44.516Z,1.30
2022-10-19T13:25:32.574Z,1.70
2022-10-19T13:28:23.045Z,1.73
2022-10-19T13:31:06.209Z,1.90
2022-10-19T13:33:52.866Z,1.80
2022-10-19T13:36:22.299Z,2.13
2022-10-19T13:39:02.528Z,2.00
2022-10-19T13:41:45.385Z,1.43
2022-10-19T13:44:19.638Z,1.60
2022-10-19T13:46:54.410Z,1.57
2022-10-19T13:49:32.543Z,1.60
2022-10-19T13:52:09.979Z,1.90
2022-10-19T13:54:45.208Z,1.97
2022-10-19T13:57:21.482Z,1.60
2022-10-19T13:59:59.461Z,1.70
2022-10-19T14:02:51.088Z,1.47
2022-10-19T14:05:25.665Z,1.83
2022-10-19T14:08:04.214Z,1.63
2022-10-19T14:10:32.804Z,2.03
2022-10-19T14:13:00.895Z,2.53
2022-10-19T14:15:29.103Z,1.93
2022-10-19T14:17:56.586Z,1.87
2022-10-19T14:20:29.489Z,1.83
2022-10-19T14:22:58.212Z,2.37
2022-10-19T14:25:26.529Z,2.20
2022-10-19T14:27:57.501Z,2.17
2022-10-19T14:30:25.600Z,1.50
2022-10-19T14:32:56.805Z,2.10
2022-10-19T14:35:28.305Z,1.47
2022-10-19T14:37:55.754Z,1.60
2022-10-19T14:40:27.818Z,1.63
2022-10-19T14:42:56.154Z,1.70
2022-10-19T14:45:24.894Z,2.17
2022-10-19T14:47:59.555Z,1.60
2022-10-19T14:50:30.238Z,2.30
2022-10-19T14:52:59.745Z,1.10
2022-10-19T14:55:30.507Z,2.20
2022-10-19T14:57:57.859Z,1.30
2022-10-19T15:02:57.845Z,1.80
2022-10-19T15:05:27.243Z,1.83
2022-10-19T15:07:56.596Z,1.90
2022-10-19T15:10:31.283Z,1.70
2022-10-19T15:13:03.560Z,2.00
2022-10-19T15:15:31.770Z,2.23
2022-10-19T15:18:03.798Z,2.57
2022-10-19T15:20:36.291Z,1.93
2022-10-19T15:23:21.630Z,1.60
2022-10-19T15:25:59.938Z,1.40
2022-10-19T15:28:34.972Z,1.70
2022-10-19T15:31:05.577Z,1.87
2022-10-19T15:33:37.689Z,1.50
2022-10-19T15:36:06.957Z,2.20
2022-10-19T15:38:34.254Z,1.80
2022-10-19T15:41:08.267Z,2.60
2022-10-19T15:43:38.673Z,2.20
2022-10-19T15:46:06.521Z,2.60
2022-10-19T15:48:48.090Z,2.13
2022-10-19T15:51:33.553Z,2.50
2022-10-19T15:54:01.570Z,1.83
2022-10-19T15:56:31.174Z,2.37
2022-10-19T15:58:58.946Z,1.60
2022-10-19T16:01:27.047Z,2.13
2022-10-19T16:03:54.885Z,1.90
2022-10-19T16:06:23.143Z,1.90
2022-10-19T16:08:50.403Z,1.30
2022-10-19T16:11:18.353Z,2.47
2022-10-19T16:13:56.334Z,2.93
2022-10-19T16:16:24.251Z,1.77
2022-10-19T16:18:51.819Z,2.60
2022-10-19T16:21:19.450Z,1.53
2022-10-19T16:23:46.750Z,1.67
2022-10-19T16:26:14.800Z,2.10
2022-10-19T16:28:42.304Z,2.13
2022-10-19T16:31:10.933Z,2.13
2022-10-19T16:33:38.147Z,2.23
2022-10-19T16:36:05.978Z,1.90
2022-10-19T16:38:33.308Z,2.10
2022-10-19T16:41:04.110Z,2.10
2022-10-19T16:43:34.638Z,2.10
2022-10-19T16:46:02.324Z,1.70
2022-10-19T16:48:31.049Z,2.20
2022-10-19T16:51:20.054Z,2.20
2022-10-19T16:53:50.102Z,1.60
2022-10-19T16:56:17.426Z,2.50
2022-10-19T16:58:54.075Z,2.03
2022-10-19T17:01:21.781Z,1.73
2022-10-19T17:03:50.421Z,1.80
2022-10-19T17:06:18.075Z,2.37
2022-10-19T17:09:29.803Z,1.50
2022-10-19T17:11:33.702Z,2.40
2022-10-19T17:14:01.817Z,2.00
2022-10-19T17:16:29.983Z,1.90
2022-10-19T17:18:59.256Z,1.70
2022-10-19T17:21:27.262Z,2.30
2022-10-19T17:23:55.075Z,2.00
2022-10-19T17:26:25.502Z,2.63
2022-10-19T17:28:52.743Z,2.03
2022-10-19T17:31:20.037Z,2.33
2022-10-19T17:33:47.235Z,2.10
2022-10-19T17:36:16.874Z,2.13
2022-10-19T17:38:44.067Z,2.37
2022-10-19T17:41:12.828Z,2.13
2022-10-19T17:43:42.320Z,1.97
2022-10-19T17:46:10.722Z,1.80
2022-10-19T17:48:43.617Z,1.83
2022-10-19T17:51:12.254Z,2.10
2022-10-19T17:53:40.826Z,1.90
2022-10-19T17:56:08.575Z,2.30
2022-10-19T17:58:39.161Z,1.83
2022-10-19T18:01:07.693Z,2.27
2022-10-19T18:03:35.687Z,1.50
2022-10-19T18:06:05.711Z,1.97
2022-10-19T18:08:37.144Z,2.73
2022-10-19T18:11:06.499Z,2.00
2022-10-19T18:13:34.648Z,2.73
2022-10-19T18:16:02.023Z,2.07
2022-10-19T18:18:31.813Z,2.30
2022-10-19T18:21:00.819Z,1.50
2022-10-19T18:23:28.031Z,1.83
2022-10-19T18:25:58.360Z,2.40
2022-10-19T18:28:26.956Z,2.07
2022-10-19T18:30:54.220Z,2.60
2022-10-19T18:33:21.453Z,2.60
2022-10-19T18:35:48.674Z,2.30
2022-10-19T18:38:15.866Z,2.67
2022-10-19T18:40:43.097Z,2.67
2022-10-19T18:43:10.268Z,2.47
2022-10-19T18:45:39.661Z,2.83
2022-10-19T18:48:08.395Z,3.53
2022-10-19T18:50:35.608Z,3.10
2022-10-19T18:53:02.787Z,2.93
2022-10-19T18:55:30.039Z,3.10
2022-10-19T18:57:57.204Z,2.67
2022-10-19T19:00:24.405Z,2.60
2022-10-19T19:02:56.059Z,2.63
2022-10-19T19:05:23.308Z,2.60
2022-10-19T19:07:50.849Z,2.40
2022-10-19T19:10:18.193Z,2.80
2022-10-19T19:12:45.455Z,2.70
2022-10-19T19:15:15.804Z,2.10
2022-10-19T19:17:48.214Z,2.80
2022-10-19T19:20:16.808Z,3.00
2022-10-19T19:22:44.044Z,3.07
2022-10-19T19:25:11.248Z,2.57
2022-10-19T19:30:10.868Z,3.60
2022-10-19T19:32:38.128Z,2.73
2022-10-19T19:35:05.597Z,2.77
2022-10-19T19:37:35.477Z,2.27
2022-10-19T19:40:03.448Z,3.13
2022-10-19T19:42:31.043Z,2.40
2022-10-19T19:45:01.007Z,1.80
2022-10-19T19:47:28.235Z,3.40
2022-10-19T19:49:56.646Z,2.47
2022-10-19T19:52:23.883Z,2.47
2022-10-19T19:54:52.448Z,2.90
2022-10-19T19:57:19.679Z,2.37
2022-10-19T19:59:46.884Z,2.90
2022-10-19T20:02:14.243Z,3.00
2022-10-19T20:04:41.436Z,3.07
2022-10-19T20:07:08.658Z,3.10
2022-10-19T20:09:35.822Z,3.13
2022-10-19T20:12:04.472Z,3.53
2022-10-19T20:14:31.687Z,3.43
2022-10-19T20:16:58.876Z,2.30
2022-10-19T20:19:26.374Z,2.87
2022-10-19T20:21:53.615Z,3.17
2022-10-19T20:24:20.828Z,3.00
2022-10-19T20:26:48.048Z,3.30
2022-10-19T20:29:16.615Z,3.33
2022-10-19T20:31:43.800Z,2.87
2022-10-19T20:34:12.185Z,3.73
2022-10-19T20:36:39.416Z,2.93
2022-10-19T20:39:06.679Z,3.37
2022-10-19T20:41:33.858Z,2.73
2022-10-19T20:44:01.244Z,2.80
2022-10-19T20:46:30.443Z,2.90
2022-10-19T20:48:58.657Z,3.17
2022-10-19T20:51:30.761Z,3.17
2022-10-19T20:54:00.446Z,2.83
2022-10-19T20:56:28.565Z,1.43
2022-10-19T20:58:56.381Z,2.87
2022-10-19T21:01:24.245Z,2.47
2022-10-19T21:03:53.509Z,3.73
2022-10-19T21:06:21.779Z,3.57
2022-10-19T21:08:49.478Z,3.13
2022-10-19T21:11:17.718Z,2.70
2022-10-19T21:13:45.016Z,3.47
2022-10-19T21:16:12.951Z,1.80
2022-10-19T21:18:40.391Z,2.97
2022-10-19T21:21:12.652Z,3.30
2022-10-19T21:23:39.937Z,3.43
2022-10-19T21:26:07.261Z,3.67
2022-10-19T21:28:34.569Z,3.27
2022-10-19T21:31:05.136Z,2.97
2022-10-19T21:33:32.342Z,3.10
2022-10-19T21:36:00.920Z,2.83
2022-10-19T21:38:29.434Z,2.10
2022-10-19T21:40:57.543Z,2.23
2022-10-19T21:43:24.751Z,2.70
2022-10-19T21:45:52.041Z,2.97
2022-10-19T21:48:19.228Z,3.70
2022-10-19T21:50:46.471Z,2.43
2022-10-19T21:53:13.665Z,2.40
2022-10-19T21:55:42.193Z,3.13
2022-10-19T21:58:09.411Z,2.17
2022-10-19T22:00:36.629Z,3.00
2022-10-19T22:03:04.264Z,2.80
2022-10-19T22:05:31.538Z,2.90
2022-10-19T22:07:58.811Z,3.50
2022-10-19T22:10:26.161Z,3.13
2022-10-19T22:12:55.911Z,2.73
2022-10-19T22:15:23.086Z,2.70
2022-10-19T22:17:50.283Z,2.70
2022-10-19T22:20:17.553Z,3.13
2022-10-19T22:22:44.743Z,2.97
2022-10-19T22:25:11.960Z,2.83
2022-10-19T22:27:39.209Z,2.33
2022-10-19T22:30:08.388Z,2.87
2022-10-19T22:32:35.710Z,2.83
2022-10-19T22:35:03.370Z,3.20
2022-10-19T22:37:30.835Z,3.00
2022-10-19T22:39:58.142Z,3.00
2022-10-19T22:42:43.923Z,2.93
2022-10-19T22:45:24.550Z,2.90
2022-10-19T22:47:51.748Z,2.97
2022-10-19T22:50:19.002Z,3.40
2022-10-19T22:52:46.191Z,3.50
2022-10-19T22:55:13.377Z,3.60
2022-10-19T22:57:40.582Z,3.70
2022-10-19T23:00:08.619Z,3.50
2022-10-19T23:02:37.495Z,3.67
2022-10-19T23:05:05.053Z,3.87
2022-10-19T23:07:32.490Z,2.60
2022-10-19T23:09:59.911Z,3.13
2022-10-19T23:12:27.406Z,3.40
2022-10-19T23:14:54.602Z,2.67
2022-10-19T23:17:21.838Z,3.73
2022-10-19T23:19:50.419Z,3.50
2022-10-19T23:22:17.650Z,3.77
2022-10-19T23:24:44.911Z,3.23
2022-10-19T23:27:13.382Z,3.77
2022-10-19T23:29:40.763Z,3.27
2022-10-19T23:32:11.494Z,3.70
2022-10-19T23:34:40.229Z,4.37
2022-10-19T23:37:10.693Z,3.73
2022-10-19T23:39:37.893Z,3.90
2022-10-19T23:42:05.073Z,3.70
2022-10-19T23:44:32.880Z,3.70
2022-10-19T23:47:00.199Z,3.40
2022-10-19T23:49:27.403Z,4.50
2022-10-19T23:51:54.602Z,4.63
2022-10-19T23:54:23.149Z,3.50
2022-10-19T23:56:51.594Z,3.60
2022-10-19T23:59:19.082Z,4.40
